Ncc Najd — HZAK — position and weather

sailwx.info

Track history (hours):
 
Tides and Currents Weather Stations Pressure Air Temp Water Temp Dewpoint Dewpoint Depression Visibility Wind Speed Wind Dir Waves Ship Positions

Ncc Najd

Last reported at 2014-Dec-31 00:26 UTC. Time now 2015-Jan-27 08:28 UTC.
Position N 02°01' E 102°11'.
Warning: this ship's position is 27 days out of date.

Length 183 m; draft 7.8 m.

Type: Ship. MMSI: 403579000.

Date/timePositionNaut miles runAvg speedWind from/ knotsBaromVisibWave heightAir tempDewpointWater temp
2014-Dec-31 00:26N 02°01' E 102°11'2915.6
2014-Dec-30 22:33N 01°47' E 102°37'1515.1
2014-Dec-30 21:32N 01°41' E 102°51'5614.0
2014-Dec-30 17:32N 01°14' E 103°40'3 3.3
2014-Dec-30 16:33N 01°15' E 103°43'0 0.0
2014-Dec-30 15:32N 01°15' E 103°43'0 0.0
2014-Dec-30 14:26N 01°15' E 103°43'0 0.0
2014-Dec-30 11:29N 01°15' E 103°43'0 0.0
2014-Dec-30 10:32N 01°15' E 103°43'0 0.0
2014-Dec-30 09:32N 01°15' E 103°43'0 0.0
2014-Dec-30 05:23N 01°15' E 103°43'0 0.0
2014-Dec-29 19:25N 01°15' E 103°43'3 3.1
2014-Dec-29 18:32N 01°13' E 103°41'2 1.4
2014-Dec-29 17:26N 01°12' E 103°42'0 0.1
2014-Dec-29 16:33N 01°11' E 103°42'0 0.1
2014-Dec-29 15:27N 01°11' E 103°42'0 0.1
2014-Dec-29 14:33N 01°11' E 103°42'0 0.0
2014-Dec-29 10:33N 01°11' E 103°42'0 0.0
2014-Dec-29 09:30N 01°11' E 103°42'0 0.0
2014-Dec-29 08:24N 01°11' E 103°42'0 0.1
2014-Dec-29 07:21N 01°11' E 103°42'0 0.0
2014-Dec-29 06:30N 01°11' E 103°42'0 0.1
2014-Dec-29 04:18N 01°11' E 103°42'0 0.0
2014-Dec-29 03:30N 01°11' E 103°42'0 0.1
2014-Dec-29 02:31N 01°11' E 103°42'6 5.6
2014-Dec-29 01:30N 01°12' E 103°48'0 0.0
2014-Dec-28 10:22N 01°12' E 103°48'1 0.9
2014-Dec-28 09:33N 01°13' E 103°48'4 3.9
2014-Dec-28 08:33N 01°14' E 103°45'0 0.0
2014-Dec-28 07:30N 01°14' E 103°45'0 0.0
2014-Dec-28 06:30N 01°14' E 103°45'0 0.0
2014-Dec-28 05:06N 01°14' E 103°45'0 0.0
2014-Dec-28 04:30N 01°14' E 103°45'0 0.0
2014-Dec-28 03:24N 01°14' E 103°45'0 0.0
2014-Dec-28 00:15N 01°14' E 103°45'0 0.0
2014-Dec-27 22:33N 01°14' E 103°45'0 0.0
2014-Dec-27 21:27N 01°14' E 103°45'0 0.0
2014-Dec-27 20:33N 01°14' E 103°45'0 0.0
2014-Dec-27 19:24N 01°14' E 103°45'0 0.0
2014-Dec-27 18:30N 01°14' E 103°45'0 0.0
2014-Dec-27 17:33N 01°14' E 103°45'0 0.0
2014-Dec-27 16:27N 01°14' E 103°45'0 0.0
2014-Dec-27 15:27N 01°14' E 103°45'0 0.0
2014-Dec-27 14:21N 01°14' E 103°45'0 0.0
2014-Dec-27 13:27N 01°14' E 103°45'0 0.0
2014-Dec-27 12:33N 01°14' E 103°45'0 0.0
2014-Dec-27 11:33N 01°14' E 103°45'0 0.0
2014-Dec-27 10:03N 01°14' E 103°45'0 0.0
2014-Dec-27 09:03N 01°14' E 103°45'0 0.0
2014-Dec-27 08:33N 01°14' E 103°45'0 0.0
2014-Dec-27 07:33N 01°14' E 103°45'0 0.0
2014-Dec-27 06:33N 01°14' E 103°45'0 0.0
2014-Dec-27 05:18N 01°14' E 103°45'0 0.0
2014-Dec-27 04:12N 01°14' E 103°45'0 0.0
2014-Dec-27 01:33N 01°14' E 103°45'0 0.0
2014-Dec-26 23:24N 01°14' E 103°45'0 0.0
2014-Dec-26 22:33N 01°14' E 103°45'0 0.0
2014-Dec-26 21:33N 01°14' E 103°45'0 0.0
2014-Dec-26 20:33N 01°14' E 103°45'2 0.0
2014-Dec-25 03:31N 01°16' E 103°44'80 3.2
2014-Dec-24 02:17N 01°45' E 102°30'1315.9
2014-Dec-24 01:30N 01°51' E 102°19'  
Track history (hours):
 
Tides and Currents Weather Stations Pressure Air Temp Water Temp Dewpoint Dewpoint Depression Visibility Wind Speed Wind Dir Waves Ship Positions

Ncc Najd

Last reported at 2014-Dec-31 00:26 UTC. Time now 2015-Jan-27 08:28 UTC.
Position N 02°01' E 102°11'.
Warning: this ship's position is 27 days out of date.

Length 183 m; draft 7.8 m.

Type: Ship. MMSI: 403579000.

Date/timePositionNaut miles runAvg speedWind from/ knotsBaromVisibWave heightAir tempDewpointWater temp
2014-Dec-31 00:26N 02°01' E 102°11'2915.6
2014-Dec-30 22:33N 01°47' E 102°37'1515.1
2014-Dec-30 21:32N 01°41' E 102°51'5614.0
2014-Dec-30 17:32N 01°14' E 103°40'3 3.3
2014-Dec-30 16:33N 01°15' E 103°43'0 0.0
2014-Dec-30 15:32N 01°15' E 103°43'0 0.0
2014-Dec-30 14:26N 01°15' E 103°43'0 0.0
2014-Dec-30 11:29N 01°15' E 103°43'0 0.0
2014-Dec-30 10:32N 01°15' E 103°43'0 0.0
2014-Dec-30 09:32N 01°15' E 103°43'0 0.0
2014-Dec-30 05:23N 01°15' E 103°43'0 0.0
2014-Dec-29 19:25N 01°15' E 103°43'3 3.1
2014-Dec-29 18:32N 01°13' E 103°41'2 1.4
2014-Dec-29 17:26N 01°12' E 103°42'0 0.1
2014-Dec-29 16:33N 01°11' E 103°42'0 0.1
2014-Dec-29 15:27N 01°11' E 103°42'0 0.1
2014-Dec-29 14:33N 01°11' E 103°42'0 0.0
2014-Dec-29 10:33N 01°11' E 103°42'0 0.0
2014-Dec-29 09:30N 01°11' E 103°42'0 0.0
2014-Dec-29 08:24N 01°11' E 103°42'0 0.1
2014-Dec-29 07:21N 01°11' E 103°42'0 0.0
2014-Dec-29 06:30N 01°11' E 103°42'0 0.1
2014-Dec-29 04:18N 01°11' E 103°42'0 0.0
2014-Dec-29 03:30N 01°11' E 103°42'0 0.1
2014-Dec-29 02:31N 01°11' E 103°42'6 5.6
2014-Dec-29 01:30N 01°12' E 103°48'0 0.0
2014-Dec-28 10:22N 01°12' E 103°48'1 0.9
2014-Dec-28 09:33N 01°13' E 103°48'4 3.9
2014-Dec-28 08:33N 01°14' E 103°45'0 0.0
2014-Dec-28 07:30N 01°14' E 103°45'0 0.0
2014-Dec-28 06:30N 01°14' E 103°45'0 0.0
2014-Dec-28 05:06N 01°14' E 103°45'0 0.0
2014-Dec-28 04:30N 01°14' E 103°45'0 0.0
2014-Dec-28 03:24N 01°14' E 103°45'0 0.0
2014-Dec-28 00:15N 01°14' E 103°45'0 0.0
2014-Dec-27 22:33N 01°14' E 103°45'0 0.0
2014-Dec-27 21:27N 01°14' E 103°45'0 0.0
2014-Dec-27 20:33N 01°14' E 103°45'0 0.0
2014-Dec-27 19:24N 01°14' E 103°45'0 0.0
2014-Dec-27 18:30N 01°14' E 103°45'0 0.0
2014-Dec-27 17:33N 01°14' E 103°45'0 0.0
2014-Dec-27 16:27N 01°14' E 103°45'0 0.0
2014-Dec-27 15:27N 01°14' E 103°45'0 0.0
2014-Dec-27 14:21N 01°14' E 103°45'0 0.0
2014-Dec-27 13:27N 01°14' E 103°45'0 0.0
2014-Dec-27 12:33N 01°14' E 103°45'0 0.0
2014-Dec-27 11:33N 01°14' E 103°45'0 0.0
2014-Dec-27 10:03N 01°14' E 103°45'0 0.0
2014-Dec-27 09:03N 01°14' E 103°45'0 0.0
2014-Dec-27 08:33N 01°14' E 103°45'0 0.0
2014-Dec-27 07:33N 01°14' E 103°45'0 0.0
2014-Dec-27 06:33N 01°14' E 103°45'0 0.0
2014-Dec-27 05:18N 01°14' E 103°45'0 0.0
2014-Dec-27 04:12N 01°14' E 103°45'0 0.0
2014-Dec-27 01:33N 01°14' E 103°45'0 0.0
2014-Dec-26 23:24N 01°14' E 103°45'0 0.0
2014-Dec-26 22:33N 01°14' E 103°45'0 0.0
2014-Dec-26 21:33N 01°14' E 103°45'0 0.0
2014-Dec-26 20:33N 01°14' E 103°45'2 0.0
2014-Dec-25 03:31N 01°16' E 103°44'80 3.2
2014-Dec-24 02:17N 01°45' E 102°30'1315.9
2014-Dec-24 01:30N 01°51' E 102°19'  

Dump ship's entire track history